Terminal Aerodrome Forecast
Issued by NWS Memphis, TN

Home | Current Version | Previous Version | Text Only | Print | Product List | Glossary On
Versions: 1 2 3 4 5 6 7 8 9 10 11 12 13 14 15
000
FTUS44 KMEG 231100
TAFMKL
TAF
KMKL 231130Z 2312/2412 21004KT P6SM SKC
     FM231400 24006KT P6SM FEW050
     FM232100 26005KT P6SM VCTS SCT050CB BKN150
     FM240200 00000KT P6SM SCT150=

USA.gov is the U.S. government's official web portal to all federal, state and local government web resources and services.